• Join FlightAware (Why Join?)
  • Login
  • US Flag 
01:54PM EST


 

Airport Tracker/Info


-or-


 

Live Flight TrackerFlight Track Log ✈ ASQ5941 ✈ 15-Jul-2013 ✈ KORD - KAVP

Flight Track Log - Related Links

Times and Time Zones

All times are in EDT time to prevent confusion due to time zone crossing. See the ASQ5941 flight status page for this flight to view local times or setup timezone preferences in your user account.

Time Position Orientation Groundspeed Altitude Reporting Facility
EDT Latitude Longitude Course Direction KTS MPH feet Rate Location/Type
02:56PM 41.9167 -87.9167 77° East 156 180 3,000  Level Chicago TRACON
02:57PM 41.8969 -87.8561 114° Southeast 245 282 4,000 780 Climbing Chicago Center
02:58PM 41.8897 -87.7633 96° East 248 285 4,700 480 Climbing Chicago Center
02:59PM 42.0540 -87.3409 78° East  Level FlightAware Approximate
02:59PM 41.8828 -87.6664 95° East 258 297 5,000  Level Chicago Center
03:00PM 42.0758 -87.1990 78° East  Level FlightAware Approximate
03:00PM 41.9144 -87.5561 69° East 274 315 6,700  Level Chicago Center
03:01PM 42.0985 -87.0588 77° East  Level FlightAware Approximate
03:01PM 41.9508 -87.4664 61° Northeast 276 318 8,700  Level Chicago Center
03:02PM 41.9892 -87.3697 62° Northeast 294 338 10,400 1,260 Climbing Chicago Center
03:03PM 42.0311 -87.2661 61° Northeast 317 365 11,400 780 Climbing Chicago Center
03:04PM 42.0783 -87.1478 62° Northeast 359 413 12,100 960 Climbing Chicago Center
03:05PM 42.1150 -87.0222 68° East 366 421 13,400 1,200 Climbing Chicago Center
03:06PM 42.1219 -86.8575 87° East 371 427 14,600 1,080 Climbing Chicago Center
03:07PM 42.1264 -86.7164 88° East 376 433 15,700 840 Climbing Chicago Center
03:08PM 42.1294 -86.5711 88° East 384 442 16,400 720 Climbing Chicago Center
03:09PM 42.1347 -86.4256 87° East 389 448 17,300 600 Climbing Chicago Center
03:10PM 42.1394 -86.2786 87° East 391 450 17,700 660 Climbing Chicago Center
03:11PM 42.1439 -86.1322 88° East 392 451 18,700 1,020 Climbing Chicago Center
03:12PM 42.1433 -85.9681 90° East 391 450 19,900 1,080 Climbing Chicago Center
03:13PM 42.1417 -85.8231 91° East 390 449 21,000 960 Climbing Chicago Center
03:14PM 42.1408 -85.6742 90° East 398 458 22,000 1,020 Climbing Chicago Center
03:15PM 42.1378 -85.4978 91° East 397 457 23,200 1,080 Climbing Chicago Center
03:16PM 42.1375 -85.3503 90° East 397 457 24,300 960 Climbing Chicago Center
03:17PM 42.1356 -85.2033 91° East 397 457 25,300 960 Climbing Chicago Center
03:18PM 42.1344 -85.0564 91° East 395 455 26,300 960 Climbing Chicago Center
03:19PM 42.1317 -84.9111 91° East 390 449 27,400 960 Climbing Chicago Center
03:21PM 42.1294 -84.7672 91° East 389 448 28,400 1,080 Climbing Chicago Center
03:22PM 42.1258 -84.5939 92° East 387 445 29,700 1,080 Climbing Chicago Center
03:23PM 42.1256 -84.4489 90° East 388 447 30,700 1,080 Climbing Chicago Center
03:23PM 42.1381 -84.3414 81° East 384 442 31,600 1,140 Climbing Cleveland Center
03:24PM 42.1483 -84.2186 84° East 379 436 32,700 660 Climbing Cleveland Center
03:25PM 42.1653 -84.0739 81° East 384 442 33,000 120 Climbing Cleveland Center
03:26PM 42.1825 -83.9206 81° East 396 456 33,000  Level Cleveland Center
03:27PM 42.1994 -83.7617 82° East 413 475 33,000 420 Level Cleveland Center
03:28PM 42.2142 -83.6000 83° East 428 493 33,900 960 Climbing Cleveland Center
03:29PM 42.2272 -83.4211 84° East 439 505 35,000 540 Climbing Cleveland Center
03:30PM 42.2289 -83.2556 89° East 439 505 35,000  Level Cleveland Center
03:31PM 42.2308 -83.0875 89° East 445 512 35,000  Level Cleveland Center
03:32PM 42.2319 -82.9247 89° East 440 506 35,000  Level Cleveland Center
03:33PM 42.2333 -82.7594 89° East 440 506 35,000  Level Cleveland Center
03:34PM 42.2319 -82.5994 91° East 440 506 35,000  Level Cleveland Center
03:35PM 42.2328 -82.4339 90° East 440 506 35,000  Level Cleveland Center
03:36PM 42.2331 -82.2714 90° East 440 506 35,000  Level Cleveland Center
03:37PM 42.2331 -82.1256 90° East 440 506 35,000  Level Cleveland Center
03:38PM 42.2331 -81.9600 90° East 440 506 35,000  Level Cleveland Center
03:39PM 42.2328 -81.7975 90° East 440 506 35,000  Level Cleveland Center
03:40PM 42.2322 -81.6347 90° East 435 501 35,000  Level Cleveland Center
03:41PM 42.2297 -81.4581 91° East 435 501 35,000  Level Cleveland Center
03:42PM 42.2286 -81.2953 90° East 435 501 35,000  Level Cleveland Center
03:43PM 42.2275 -81.1300 90° East 435 501 35,000  Level Cleveland Center
03:44PM 42.2261 -80.9672 91° East 437 503 35,000  Level Cleveland Center
03:45PM 42.2244 -80.8047 91° East 437 503 35,000  Level Cleveland Center
03:46PM 42.2164 -80.6392 94° East 437 503 35,000  Level Cleveland Center
03:47PM 42.1933 -80.4767 101° East 444 511 35,000  Level Cleveland Center
03:48PM 42.1764 -80.3169 98° East 438 504 35,000  Level Cleveland Center
03:49PM 42.1572 -80.1769 100° East 433 498 35,000  Level Cleveland Center
03:50PM 42.1378 -80.0175 99° East 425 489 35,000  Level Cleveland Center
03:51PM 42.1139 -79.8414 100° East 425 489 35,000  Level Cleveland Center
03:52PM 42.0919 -79.6822 100° East 430 495 35,000  Level Cleveland Center
03:53PM 42.0697 -79.5231 101° East 430 495 35,000  Level Cleveland Center
03:54PM 42.0472 -79.3642 101° East 430 495 35,000  Level Cleveland Center
03:55PM 42.0267 -79.2050 100° East 430 495 35,000 -720 Level Cleveland Center
03:56PM 42.0039 -79.0464 101° East 430 495 33,600 -1,500 Descending Cleveland Center
03:57PM 41.9808 -78.8933 101° East 430 495 32,100 -5,340 Descending Cleveland Center
03:58PM 41.9619 -78.7486 100° East 430 495 23,000 -1,500 Descending Cleveland Center
03:59PM 41.9386 -78.5900 101° East 430 495 29,200 2,340 Climbing Cleveland Center
04:00PM 41.9150 -78.4344 101° East 430 495 27,700 -1,500 Descending Cleveland Center
04:01PM 41.8931 -78.2736 100° East 430 495 26,300 -1,500 Descending Cleveland Center
04:02PM 41.8667 -78.1100 102° East 435 501 24,800 -1,440 Descending Cleveland Center
04:04PM 41.8297 -77.8750 102° East 450 518 23,000 -780 Descending New York Center
04:05PM 41.8061 -77.7083 101° East 455 524 23,000  Level New York Center
04:06PM 41.7803 -77.5442 102° East 455 524 23,000  Level New York Center
04:07PM 41.7522 -77.3744 102° East 455 524 23,000 -7,080 Level New York Center
04:08PM 41.7281 -77.2108 101° East 455 524 9,000 -1,380 Descending New York Center
04:09PM 41.7011 -77.0497 103° East 449 517 20,300 4,380 Climbing New York Center
04:10PM 41.6778 -76.8975 102° East 436 502 17,900 -2,220 Descending New York Center
04:11PM 41.6542 -76.7511 102° East 417 480 15,900 -2,040 Descending New York Center
04:12PM 41.6314 -76.6186 103° East 412 474 13,800 -2,040 Descending New York Center
04:13PM 41.6058 -76.4636 102° East 388 447 11,900 -1,500 Descending New York Center
04:14PM 41.5861 -76.3483 103° East 346 398 10,900 -1,380 Descending New York Center
04:15PM 41.5683 -76.2386 102° East 312 359 9,300 -1,740 Descending New York Center
04:16PM 41.5519 -76.1458 103° East 289 333 7,500 -1,980 Descending New York Center
04:17PM 41.4953 -76.0583 131° Southeast 277 319 5,400 -1,740 Descending New York Center
04:18PM 41.4381 -75.9872 137° Southeast 282 325 4,100 -720 Descending New York Center
04:19PM 41.3844 -75.9250 139° Southeast 282 325 4,000 -120 Descending New York Center